Time;durP1;ratioP1;P1;durP2;ratioP2;P2;SDS_P1;SDS_P2;PMS_P1;PMS_P2;Temp;Humidity;BMP_temperature;BMP_pressure;BME280_temperature;BME280_humidity;BME280_pressure;Samples;Min_cycle;Max_cycle;Signal;HPM_P1;HPM_P2
2022/04/16 00:01:52;;;;;;;8.40;5.13;;;;;;;12.44;100.00;96110.88;5096077;28;20195;-58
2022/04/16 00:04:18;;;;;;;6.30;4.97;;;;;;;12.30;100.00;96110.91;5096305;28;20176;-58
2022/04/16 00:06:44;;;;;;;6.10;4.73;;;;;;;12.23;100.00;96110.94;5096027;28;20218;-61
2022/04/16 00:09:09;;;;;;;6.47;5.20;;;;;;;12.25;100.00;96111.31;5096213;28;20191;-58
2022/04/16 00:11:36;;;;;;;4.73;4.17;;;;;;;12.04;100.00;96119.59;5096205;28;20175;-58
2022/04/16 00:14:03;;;;;;;5.63;4.37;;;;;;;12.05;100.00;96110.19;5096370;28;20187;-58
2022/04/16 00:16:29;;;;;;;5.23;4.23;;;;;;;12.01;100.00;96106.69;5096070;28;20187;-58
2022/04/16 00:18:57;;;;;;;5.77;4.47;;;;;;;12.11;100.00;96109.41;5096146;28;20210;-58
2022/04/16 00:21:24;;;;;;;5.00;4.50;;;;;;;12.05;100.00;96110.19;5096222;28;20195;-60
2022/04/16 00:23:50;;;;;;;4.63;3.80;;;;;;;12.10;100.00;96102.34;5095824;28;20212;-61
2022/04/16 00:26:15;;;;;;;4.90;3.90;;;;;;;11.87;100.00;96104.00;5095863;28;20211;-55
2022/04/16 00:28:40;;;;;;;6.07;4.10;;;;;;;11.98;100.00;96093.81;5095942;28;20198;-56
2022/04/16 00:31:06;;;;;;;5.40;4.33;;;;;;;11.99;100.00;96100.84;5096237;28;20217;-56
2022/04/16 00:33:33;;;;;;;5.87;4.27;;;;;;;12.01;100.00;96088.31;5095794;28;20183;-54
2022/04/16 00:36:01;;;;;;;5.27;4.13;;;;;;;12.07;100.00;96091.44;5095695;28;20190;-56
2022/04/16 00:38:27;;;;;;;4.50;4.00;;;;;;;12.12;100.00;96099.22;5096048;28;20197;-57
2022/04/16 00:40:52;;;;;;;5.17;4.20;;;;;;;12.02;100.00;96100.06;5095577;28;20188;-56
2022/04/16 00:43:25;;;;;;;5.97;4.97;;;;;;;12.24;100.00;96093.34;5095634;28;20228;-55
2022/04/16 00:45:52;;;;;;;6.13;4.97;;;;;;;12.30;100.00;96089.00;5095489;28;20256;-58
2022/04/16 00:48:19;;;;;;;8.33;7.00;;;;;;;12.34;100.00;96078.81;5095765;28;20199;-58
2022/04/16 00:50:44;;;;;;;7.17;6.10;;;;;;;12.26;100.00;96088.22;5095408;28;20217;-58
2022/04/16 00:53:11;;;;;;;6.67;5.77;;;;;;;12.25;100.00;96087.47;5096973;28;20211;-58
2022/04/16 00:55:38;;;;;;;9.40;7.07;;;;;;;12.34;100.00;96085.06;5099015;28;20225;-59
2022/04/16 00:58:03;;;;;;;5.37;4.40;;;;;;;12.33;100.00;96088.22;5099446;28;20281;-58
2022/04/16 01:00:29;;;;;;;5.80;4.83;;;;;;;12.30;100.00;96078.03;5098892;28;20235;-62
2022/04/16 01:02:58;;;;;;;5.40;4.50;;;;;;;12.27;100.00;96085.09;5099246;28;20198;-56
2022/04/16 01:05:24;;;;;;;4.67;3.90;;;;;;;12.24;100.00;96082.38;5098836;28;20183;-56
2022/04/16 01:07:54;;;;;;;5.43;4.57;;;;;;;12.11;100.00;96082.03;5099139;28;20217;-56
2022/04/16 01:10:21;;;;;;;4.80;3.93;;;;;;;12.16;100.00;96078.09;5099357;28;20214;-54
2022/04/16 01:12:47;;;;;;;6.47;4.50;;;;;;;12.09;100.00;96083.63;5098790;28;20182;-56
2022/04/16 01:15:13;;;;;;;4.80;4.10;;;;;;;12.03;100.00;96074.22;5098613;28;20190;-55
2022/04/16 01:17:39;;;;;;;5.70;4.33;;;;;;;12.06;100.00;96067.97;5116911;28;20266;-54
2022/04/16 01:20:05;;;;;;;5.40;4.23;;;;;;;12.06;100.00;96078.94;5098562;28;20233;-61
2022/04/16 01:22:30;;;;;;;4.60;4.00;;;;;;;12.15;100.00;96079.28;5098558;28;20187;-62
2022/04/16 01:24:55;;;;;;;5.20;4.10;;;;;;;12.15;100.00;96079.28;5098353;28;20210;-62
2022/04/16 01:27:21;;;;;;;4.87;3.80;;;;;;;12.15;100.00;96082.00;5099200;28;20203;-62
2022/04/16 01:29:48;;;;;;;4.57;3.97;;;;;;;12.15;100.00;96082.00;5098537;28;20219;-62
2022/04/16 01:32:13;;;;;;;5.17;3.53;;;;;;;12.08;100.00;96082.03;5098699;28;20188;-62
2022/04/16 01:34:40;;;;;;;4.20;3.67;;;;;;;12.20;100.00;96087.09;5098509;28;20184;-62
2022/04/16 01:37:05;;;;;;;4.77;4.10;;;;;;;12.04;100.00;96082.06;5098813;28;20541;-60
2022/04/16 01:39:31;;;;;;;5.53;3.77;;;;;;;12.03;100.00;96077.75;5098120;28;20191;-61
2022/04/16 01:41:57;;;;;;;4.60;3.83;;;;;;;12.11;100.00;96075.78;5098555;28;20199;-61
2022/04/16 01:44:23;;;;;;;4.73;3.87;;;;;;;12.21;100.00;96078.47;5098645;28;20187;-61
2022/04/16 01:46:48;;;;;;;5.47;4.90;;;;;;;12.28;100.00;96085.91;5098515;28;20233;-61
2022/04/16 01:49:13;;;;;;;8.73;6.70;;;;;;;12.20;100.00;96079.66;5098813;28;20201;-61
2022/04/16 01:51:39;;;;;;;9.87;7.80;;;;;;;12.25;100.00;96075.72;5098900;28;20197;-61
2022/04/16 01:54:04;;;;;;;15.13;11.23;;;;;;;12.20;100.00;96078.88;5098046;28;20190;-61
2022/04/16 01:56:30;;;;;;;8.17;6.57;;;;;;;11.97;100.00;96076.59;5098026;28;20203;-60
2022/04/16 01:58:55;;;;;;;7.27;6.07;;;;;;;12.07;100.00;96077.75;5098044;28;20219;-62
2022/04/16 02:01:22;;;;;;;7.20;5.17;;;;;;;11.99;100.00;96068.75;5098413;28;20195;-62
2022/04/16 02:03:47;;;;;;;5.57;4.73;;;;;;;11.95;100.00;96083.66;5097617;28;20242;-62
2022/04/16 02:06:13;;;;;;;4.67;4.07;;;;;;;11.76;100.00;96078.59;5097370;28;20215;-62
2022/04/16 02:08:38;;;;;;;4.90;4.40;;;;;;;11.73;100.00;96077.41;5097844;28;20276;-62
2022/04/16 02:11:03;;;;;;;4.40;3.93;;;;;;;11.51;100.00;96077.81;5098702;28;20187;-62
2022/04/16 02:13:30;;;;;;;4.70;4.20;;;;;;;11.53;100.00;96086.41;5097567;28;20223;-61
2022/04/16 02:15:56;;;;;;;4.60;4.00;;;;;;;11.42;100.00;96088.34;5097795;28;20185;-58
2022/04/16 02:18:23;;;;;;;5.77;3.90;;;;;;;11.58;100.00;96080.56;5098059;28;20218;-58
2022/04/16 02:20:49;;;;;;;4.87;3.93;;;;;;;11.39;100.00;96080.94;5097652;28;20175;-59
2022/04/16 02:23:15;;;;;;;7.10;4.40;;;;;;;11.57;100.00;96082.50;5098150;28;20271;-58
2022/04/16 02:25:41;;;;;;;5.50;4.50;;;;;;;11.55;100.00;96075.88;5097595;28;20213;-58
2022/04/16 02:28:10;;;;;;;5.30;4.60;;;;;;;11.38;100.00;96082.13;5097702;28;20179;-59
2022/04/16 02:30:37;;;;;;;5.53;4.30;;;;;;;11.49;100.00;96071.94;5097722;28;20181;-58
2022/04/16 02:33:03;;;;;;;5.43;4.60;;;;;;;11.60;100.00;96078.19;5115659;28;20183;-58
2022/04/16 02:35:29;;;;;;;6.47;4.40;;;;;;;11.57;100.00;96076.22;5097547;28;20215;-63
2022/04/16 02:37:55;;;;;;;5.20;4.17;;;;;;;11.61;100.00;96074.31;5097817;28;20232;-62
2022/04/16 02:40:20;;;;;;;5.40;4.63;;;;;;;11.55;100.00;96067.66;5097302;28;20191;-62
2022/04/16 02:42:46;;;;;;;5.63;4.57;;;;;;;11.67;100.00;96078.22;5097807;28;20206;-62
2022/04/16 02:47:58;;;;;;;7.30;5.17;;;;;;;11.58;100.00;96075.09;5115755;28;20190;-62
2022/04/16 02:50:25;;;;;;;7.47;4.80;;;;;;;11.23;100.00;96077.81;5097236;28;20218;-58
2022/04/16 02:52:51;;;;;;;6.80;4.93;;;;;;;11.01;100.00;96068.84;5097169;28;20185;-62
2022/04/16 02:55:17;;;;;;;7.37;4.87;;;;;;;11.04;100.00;96064.53;5097467;28;20217;-61
2022/04/16 02:57:46;;;;;;;6.53;5.23;;;;;;;11.06;100.00;96073.91;5114992;28;20270;-61
2022/04/16 03:00:13;;;;;;;8.70;5.20;;;;;;;11.05;100.00;96071.56;5097157;28;20196;-61
2022/04/16 03:02:38;;;;;;;8.50;5.90;;;;;;;10.92;100.00;96081.31;5097205;28;20208;-61
2022/04/16 03:05:06;;;;;;;9.67;5.97;;;;;;;11.09;100.00;96077.81;5097130;28;20181;-63
2022/04/16 03:07:33;;;;;;;6.77;5.53;;;;;;;11.12;100.00;96074.28;5114717;28;20205;-61
2022/04/16 03:09:58;;;;;;;8.97;5.83;;;;;;;11.13;100.00;96067.66;5097162;28;20188;-56
2022/04/16 03:12:23;;;;;;;8.20;6.03;;;;;;;11.08;100.00;96070.78;5097412;28;20280;-52
2022/04/16 03:17:33;;;;;;;6.63;5.03;;;;;;;11.23;100.00;96069.63;5114797;28;20204;-55
2022/04/16 03:20:04;;;;;;;6.73;5.23;;;;;;;11.00;100.00;96069.22;5096822;28;20187;-53
2022/04/16 03:22:31;;;;;;;8.40;5.40;;;;;;;11.07;100.00;96071.97;5096741;28;20190;-54
2022/04/16 03:24:56;;;;;;;7.43;5.63;;;;;;;11.10;100.00;96071.16;5097007;28;20250;-54
2022/04/16 03:27:22;;;;;;;8.23;6.10;;;;;;;11.04;100.00;96072.72;5096624;28;20257;-61
2022/04/16 03:29:47;;;;;;;8.83;5.97;;;;;;;10.88;100.00;96066.84;5096620;28;20179;-62
2022/04/16 03:32:12;;;;;;;7.43;5.90;;;;;;;11.01;100.00;96068.03;5096470;28;20186;-61
2022/04/16 03:34:38;;;;;;;7.83;6.50;;;;;;;11.10;100.00;96073.88;5096779;28;20206;-61
2022/04/16 03:37:04;;;;;;;8.10;6.30;;;;;;;10.99;100.00;96073.09;5096949;28;20192;-61
2022/04/16 03:39:29;;;;;;;8.60;6.20;;;;;;;11.09;100.00;96066.88;5096747;28;20178;-62
2022/04/16 03:41:55;;;;;;;9.60;6.67;;;;;;;10.73;100.00;96067.97;5096280;28;20187;-61
2022/04/16 03:44:20;;;;;;;8.30;6.57;;;;;;;10.97;100.00;96067.25;5096365;28;20270;-61
2022/04/16 03:46:46;;;;;;;7.93;6.07;;;;;;;11.02;100.00;96069.59;5096597;28;20208;-59
2022/04/16 03:49:11;;;;;;;8.53;6.17;;;;;;;11.00;100.00;96064.50;5096343;28;20198;-61
2022/04/16 03:51:36;;;;;;;7.97;6.47;;;;;;;10.74;100.00;96064.88;5096275;28;20662;-62
2022/04/16 04:02:14;;;;;;;11.07;7.20;;;;;;;10.39;100.00;96066.72;5114728;28;20246;-61
2022/04/16 04:04:40;;;;;;;9.53;6.93;;;;;;;10.38;100.00;96073.38;5096123;28;20214;-58
2022/04/16 04:07:06;;;;;;;11.10;7.53;;;;;;;10.58;100.00;96063.66;5096514;28;20210;-58
2022/04/16 04:09:31;;;;;;;10.10;7.33;;;;;;;10.46;100.00;96064.81;5096518;28;20190;-58
2022/04/16 04:11:56;;;;;;;10.93;7.30;;;;;;;10.42;100.00;96074.16;5096053;28;20222;-57
2022/04/16 04:14:22;;;;;;;10.67;7.63;;;;;;;10.66;100.00;96073.44;5095945;28;20207;-58
2022/04/16 04:16:47;;;;;;;9.63;7.10;;;;;;;10.55;100.00;96072.63;5095957;28;20276;-58
2022/04/16 04:19:12;;;;;;;9.53;6.90;;;;;;;10.35;100.00;96072.19;5095858;28;20283;-57
2022/04/16 04:21:38;;;;;;;8.90;6.77;;;;;;;10.41;100.00;96067.91;5095664;28;20194;-67
2022/04/16 04:24:03;;;;;;;10.13;6.77;;;;;;;10.93;100.00;96077.41;5096039;28;20192;-60
2022/04/16 04:26:28;;;;;;;9.97;7.30;;;;;;;11.02;100.00;96081.31;5095696;28;20214;-54
2022/04/16 04:28:54;;;;;;;11.70;8.23;;;;;;;11.07;100.00;96082.91;5115909;28;20268;-54
2022/04/16 04:31:20;;;;;;;8.57;6.87;;;;;;;11.10;100.00;96087.56;5100096;28;20272;-54
2022/04/16 04:33:45;;;;;;;9.93;6.63;;;;;;;11.30;100.00;96091.50;5099647;28;20190;-54
2022/04/16 04:36:13;;;;;;;9.33;6.67;;;;;;;11.03;100.00;96093.81;5099054;28;20267;-54
2022/04/16 04:38:38;;;;;;;9.77;7.03;;;;;;;11.45;100.00;96088.38;5099310;28;20186;-54
2022/04/16 04:41:04;;;;;;;10.20;7.00;;;;;;;11.60;100.00;96089.13;5099177;28;20183;-58
2022/04/16 04:43:29;;;;;;;8.80;6.57;;;;;;;11.77;100.00;96091.09;5099335;28;20185;-56
2022/04/16 04:45:55;;;;;;;10.43;6.80;;;;;;;11.84;100.00;96091.84;5098928;28;20211;-55
2022/04/16 04:48:20;;;;;;;8.53;6.50;;;;;;;12.03;100.00;96090.66;5099565;28;20194;-56
2022/04/16 04:50:45;;;;;;;8.50;6.57;;;;;;;12.12;100.00;96100.00;5098715;28;20270;-56
2022/04/16 04:53:11;;;;;;;8.80;6.37;;;;;;;12.17;100.00;96101.56;5099652;28;20202;-54
2022/04/16 04:55:36;;;;;;;8.93;7.10;;;;;;;12.63;100.00;96110.38;5099315;28;20188;-54
2022/04/16 04:58:02;;;;;;;9.23;6.67;;;;;;;12.77;100.00;96102.09;5099386;28;20179;-54
2022/04/16 05:00:27;;;;;;;18.00;11.87;;;;;;;13.17;100.00;96104.25;5098786;28;20192;-55
2022/04/16 05:02:52;;;;;;;10.67;6.43;;;;;;;12.95;100.00;96116.50;5098888;28;20183;-53
2022/04/16 05:05:18;;;;;;;9.43;6.80;;;;;;;13.64;100.00;96111.72;5098757;28;20180;-55
2022/04/16 05:07:44;;;;;;;7.63;6.17;;;;;;;13.73;99.99;96123.00;5098965;28;20231;-54
2022/04/16 05:10:09;;;;;;;8.07;6.57;;;;;;;13.53;97.62;96124.75;5098924;28;20183;-54
2022/04/16 05:12:35;;;;;;;8.23;6.23;;;;;;;13.31;99.81;96120.63;5098721;28;20186;-54
2022/04/16 05:15:01;;;;;;;7.37;5.97;;;;;;;12.97;100.00;96127.84;5099185;28;20326;-52
2022/04/16 05:17:26;;;;;;;17.47;12.03;;;;;;;12.77;100.00;96118.56;5098800;28;20275;-63
2022/04/16 05:19:52;;;;;;;7.07;5.73;;;;;;;12.86;100.00;96121.66;5098924;28;20212;-58
2022/04/16 05:22:17;;;;;;;8.50;5.73;;;;;;;12.79;100.00;96127.16;5098534;28;20207;-56
2022/04/16 05:24:45;;;;;;;9.07;6.20;;;;;;;12.97;100.00;96130.59;5098350;28;20199;-56
2022/04/16 05:27:10;;;;;;;7.77;6.13;;;;;;;12.67;100.00;96133.88;5098482;28;20212;-52
2022/04/16 05:29:48;;;;;;;7.70;5.77;;;;;;;12.59;100.00;96131.53;5098385;28;20195;-55
2022/04/16 05:32:19;;;;;;;7.63;5.90;;;;;;;12.81;100.00;96127.53;5099045;28;20209;-54
2022/04/16 05:34:44;;;;;;;8.63;5.97;;;;;;;12.59;100.00;96124.13;5098362;28;20248;-55
2022/04/16 05:37:09;;;;;;;8.37;6.43;;;;;;;13.01;100.00;96134.13;5098486;28;20215;-60
2022/04/16 05:39:35;;;;;;;7.27;5.93;;;;;;;12.67;100.00;96136.59;5098698;28;20187;-53
2022/04/16 05:42:00;;;;;;;10.30;6.67;;;;;;;13.07;100.00;96132.50;5098888;28;20214;-55
2022/04/16 05:44:25;;;;;;;8.93;6.13;;;;;;;13.03;100.00;96132.53;5098190;28;20184;-56
2022/04/16 05:46:50;;;;;;;8.97;6.73;;;;;;;13.17;100.00;96137.94;5098200;28;20280;-55
2022/04/16 05:49:16;;;;;;;7.17;6.10;;;;;;;12.76;100.00;96144.41;5098103;28;20250;-54
2022/04/16 05:51:41;;;;;;;8.93;6.17;;;;;;;13.02;100.00;96141.16;5098161;28;20195;-54
2022/04/16 05:54:06;;;;;;;9.33;6.50;;;;;;;13.42;100.00;96143.28;5098075;28;20190;-58
2022/04/16 05:56:34;;;;;;;6.67;5.83;;;;;;;13.39;100.00;96146.81;5097984;28;20212;-62
2022/04/16 05:59:00;;;;;;;6.93;5.60;;;;;;;13.50;100.00;96144.78;5098123;28;20187;-61
2022/04/16 06:01:26;;;;;;;9.17;5.90;;;;;;;13.67;100.00;96146.59;5097906;28;20194;-61
2022/04/16 06:03:51;;;;;;;8.57;6.17;;;;;;;13.48;99.05;96144.41;5097924;28;20274;-60
2022/04/16 06:06:17;;;;;;;8.33;6.83;;;;;;;13.35;98.84;96148.81;5098204;28;20210;-61
2022/04/16 06:08:42;;;;;;;13.63;10.10;;;;;;;13.13;100.00;96148.16;5097642;28;20189;-61
2022/04/16 06:11:08;;;;;;;8.20;6.20;;;;;;;13.08;100.00;96150.53;5097827;28;20191;-61
2022/04/16 06:13:34;;;;;;;7.87;6.03;;;;;;;13.05;100.00;96140.38;5097647;28;20216;-55
2022/04/16 06:15:59;;;;;;;10.93;7.97;;;;;;;13.66;100.00;96147.78;5097908;28;20214;-54
2022/04/16 06:18:25;;;;;;;6.93;5.60;;;;;;;13.53;98.45;96143.97;5097970;28;20220;-54
2022/04/16 06:20:50;;;;;;;7.47;6.03;;;;;;;13.31;99.70;96139.81;5097877;28;20208;-55
2022/04/16 06:23:19;;;;;;;7.53;5.97;;;;;;;13.27;100.00;96155.53;5098156;28;20287;-54
2022/04/16 06:25:44;;;;;;;7.57;6.03;;;;;;;13.65;98.77;96151.72;5097244;28;20204;-56
2022/04/16 06:28:09;;;;;;;8.00;5.80;;;;;;;13.34;98.86;96150.75;5097586;28;20183;-54
2022/04/16 06:30:35;;;;;;;7.73;6.40;;;;;;;13.66;97.73;96153.25;5097962;28;20193;-64
2022/04/16 06:33:00;;;;;;;6.90;6.03;;;;;;;13.71;99.11;96154.81;5097373;28;20179;-63
2022/04/16 06:35:25;;;;;;;8.77;6.10;;;;;;;13.59;98.14;96147.84;5097478;28;20184;-59
2022/04/16 06:37:51;;;;;;;6.73;5.97;;;;;;;13.29;99.85;96161.38;5097437;28;20271;-59
2022/04/16 06:40:16;;;;;;;9.00;5.90;;;;;;;13.69;100.00;96157.94;5097421;28;20176;-64
2022/04/16 06:42:42;;;;;;;7.30;6.03;;;;;;;14.35;100.00;96156.59;5097229;28;20242;-59
2022/04/16 06:45:10;;;;;;;6.83;5.83;;;;;;;14.71;97.69;96166.00;5097414;28;20180;-67
2022/04/16 06:47:35;;;;;;;7.37;6.00;;;;;;;15.77;89.49;96157.88;5097197;28;20238;-65
2022/04/16 06:50:01;;;;;;;7.47;5.90;;;;;;;15.87;89.37;96156.94;5096952;28;20272;-67
2022/04/16 06:52:26;;;;;;;8.20;5.83;;;;;;;15.44;90.42;96172.53;5096387;28;20187;-56
2022/04/16 06:54:51;;;;;;;7.53;5.87;;;;;;;14.66;87.47;96171.97;5097093;28;20196;-55
2022/04/16 06:57:17;;;;;;;6.07;5.40;;;;;;;14.91;88.48;96177.97;5097451;28;20191;-58
2022/04/16 06:59:42;;;;;;;6.47;5.43;;;;;;;14.68;87.78;96186.06;5097369;28;20188;-58
2022/04/16 07:02:10;;;;;;;6.40;5.57;;;;;;;13.82;93.53;96167.28;5096893;28;20191;-56
2022/04/16 07:04:36;;;;;;;6.40;5.57;;;;;;;14.20;92.00;96166.13;5096723;28;20183;-57
2022/04/16 07:07:01;;;;;;;7.20;5.87;;;;;;;13.75;92.98;96172.03;5097339;28;20211;-63
2022/04/16 07:09:27;;;;;;;7.67;6.20;;;;;;;13.38;95.69;96185.63;5097352;28;20186;-65
2022/04/16 07:11:52;;;;;;;6.90;5.47;;;;;;;13.14;99.72;96171.66;5096719;28;20191;-61
2022/04/16 07:14:19;;;;;;;7.70;5.97;;;;;;;13.10;100.00;96173.63;5096987;28;20187;-65
2022/04/16 07:16:44;;;;;;;8.00;6.53;;;;;;;13.76;99.56;96179.84;5096607;28;20287;-65
2022/04/16 07:19:09;;;;;;;6.60;5.60;;;;;;;13.66;98.06;96172.47;5096745;28;20225;-67
2022/04/16 07:21:35;;;;;;;8.33;5.40;;;;;;;13.27;99.12;96182.94;5096346;28;20332;-62
2022/04/16 07:24:01;;;;;;;8.43;5.83;;;;;;;12.75;100.00;96186.69;5097131;28;20328;-65
2022/04/16 07:26:26;;;;;;;7.73;6.30;;;;;;;12.35;100.00;96189.94;5096579;28;20210;-62
2022/04/16 07:28:52;;;;;;;7.20;6.20;;;;;;;12.57;100.00;96186.75;5096686;28;20633;-58
2022/04/16 07:31:17;;;;;;;7.57;6.17;;;;;;;12.84;100.00;96190.56;5096658;28;20206;-59
2022/04/16 07:33:42;;;;;;;7.43;6.00;;;;;;;12.52;100.00;96194.59;5096678;28;20224;-60
2022/04/16 07:36:08;;;;;;;8.13;6.33;;;;;;;12.57;100.00;96199.69;5096145;28;20191;-59
2022/04/16 07:38:33;;;;;;;7.30;5.77;;;;;;;12.00;100.00;96209.16;5096375;28;20208;-59
2022/04/16 07:40:58;;;;;;;6.47;5.43;;;;;;;11.85;100.00;96204.84;5096418;28;20186;-59
2022/04/16 07:43:24;;;;;;;8.13;6.03;;;;;;;12.62;100.00;96193.78;5096671;28;20205;-58
2022/04/16 07:45:49;;;;;;;7.03;5.50;;;;;;;12.72;100.00;96204.69;5096104;28;20187;-66
2022/04/16 07:48:14;;;;;;;7.47;6.10;;;;;;;13.06;100.00;96205.00;5096503;28;20204;-53
2022/04/16 07:50:40;;;;;;;9.13;5.90;;;;;;;12.35;100.00;96203.66;5095954;28;20254;-54
2022/04/16 07:53:06;;;;;;;10.07;7.77;;;;;;;12.85;100.00;96202.31;5096040;28;20188;-54
2022/04/16 07:55:32;;;;;;;8.40;5.90;;;;;;;12.50;100.00;96227.09;5096579;28;20180;-53
2022/04/16 07:57:59;;;;;;;7.80;6.23;;;;;;;12.41;100.00;96207.53;5095893;28;20191;-52
2022/04/16 08:00:24;;;;;;;6.60;5.50;;;;;;;12.11;100.00;96209.94;5095823;28;20183;-55
2022/04/16 08:02:50;;;;;;;7.57;6.27;;;;;;;11.84;100.00;96211.50;5096016;28;20195;-59
2022/04/16 08:05:15;;;;;;;7.50;6.30;;;;;;;12.06;100.00;96215.81;5096041;28;20236;-58
2022/04/16 08:07:40;;;;;;;8.13;6.40;;;;;;;12.11;100.00;96212.66;5096003;28;20266;-59
2022/04/16 08:10:07;;;;;;;8.90;6.27;;;;;;;12.50;100.00;96202.44;5095992;28;20187;-58
2022/04/16 08:12:32;;;;;;;7.97;5.97;;;;;;;12.40;100.00;96203.22;5095590;28;20195;-58
2022/04/16 08:14:57;;;;;;;7.27;6.53;;;;;;;12.22;100.00;96213.44;5095899;28;20195;-58
2022/04/16 08:17:23;;;;;;;6.70;6.00;;;;;;;12.79;100.00;96215.63;5096009;28;20191;-58
2022/04/16 08:19:48;;;;;;;8.87;6.20;;;;;;;12.61;100.00;96219.63;5095844;28;20215;-58
2022/04/16 08:22:18;;;;;;;7.57;6.17;;;;;;;12.16;100.00;96225.94;5095879;28;20285;-61
2022/04/16 08:27:31;;;;;;;8.23;6.40;;;;;;;12.47;100.00;96214.97;5114140;28;20210;-62
2022/04/16 08:29:56;;;;;;;7.00;5.73;;;;;;;12.48;100.00;96232.16;5095447;28;20191;-62
2022/04/16 08:32:22;;;;;;;6.80;5.90;;;;;;;12.10;100.00;96227.53;5096627;28;20191;-62
2022/04/16 08:34:47;;;;;;;7.70;6.33;;;;;;;12.09;100.00;96220.50;5095488;28;20192;-62
2022/04/16 08:37:12;;;;;;;8.90;6.50;;;;;;;12.59;100.00;96230.19;5095997;28;20195;-62
2022/04/16 08:39:37;;;;;;;7.77;6.00;;;;;;;12.35;100.00;96231.81;5095650;28;20191;-57
2022/04/16 08:42:03;;;;;;;8.83;6.43;;;;;;;12.87;100.00;96232.84;5095741;28;20184;-62
2022/04/16 08:44:31;;;;;;;8.13;6.23;;;;;;;12.82;100.00;96225.06;5095654;28;20191;-63
2022/04/16 08:46:56;;;;;;;7.50;5.70;;;;;;;12.43;100.00;96235.31;5095423;28;20208;-63
2022/04/16 08:49:25;;;;;;;7.00;6.20;;;;;;;12.24;100.00;96230.28;5095178;28;20216;-62
2022/04/16 08:51:50;;;;;;;8.17;6.50;;;;;;;11.79;100.00;96231.03;5095539;28;20206;-63
2022/04/16 08:54:16;;;;;;;8.43;6.47;;;;;;;12.34;100.00;96229.44;5095123;28;20180;-62
2022/04/16 08:56:41;;;;;;;6.67;5.80;;;;;;;11.92;100.00;96234.97;5095853;28;20263;-62
2022/04/16 08:59:06;;;;;;;8.70;6.60;;;;;;;12.15;100.00;96236.13;5095364;28;20188;-56
2022/04/16 09:01:34;;;;;;;7.47;6.20;;;;;;;12.25;100.00;96240.03;5095661;28;20195;-59
2022/04/16 09:03:59;;;;;;;6.53;5.87;;;;;;;11.96;100.00;96235.75;5095244;28;20237;-58
2022/04/16 09:06:25;;;;;;;7.27;6.53;;;;;;;12.55;100.00;96229.41;5095307;28;20243;-58
2022/04/16 09:08:51;;;;;;;7.20;6.00;;;;;;;12.63;100.00;96239.19;5095356;28;20198;-58
2022/04/16 09:11:21;;;;;;;6.90;5.83;;;;;;;12.08;100.00;96247.09;5095123;28;20282;-58
2022/04/16 09:13:50;;;;;;;8.77;6.23;;;;;;;12.43;100.00;96240.81;5095804;28;20188;-58
2022/04/16 09:16:16;;;;;;;7.33;6.23;;;;;;;12.30;100.00;96247.84;5098562;28;20202;-62
2022/04/16 09:18:50;;;;;;;7.67;6.33;;;;;;;12.15;100.00;96246.28;5098672;28;20187;-59
2022/04/16 09:21:17;;;;;;;6.80;6.10;;;;;;;12.35;100.00;96242.00;5098959;28;20183;-58
2022/04/16 09:23:47;;;;;;;7.10;6.40;;;;;;;12.25;100.00;96256.47;5098955;28;20244;-57
2022/04/16 09:26:23;;;;;;;9.20;6.83;;;;;;;12.39;100.00;96240.03;5098568;28;20211;-60
2022/04/16 09:28:49;;;;;;;10.70;6.50;;;;;;;12.51;100.00;96245.09;5098421;28;20252;-58
2022/04/16 09:31:14;;;;;;;6.90;5.77;;;;;;;12.96;100.00;96249.66;5098062;28;20188;-59
2022/04/16 09:33:39;;;;;;;5.93;5.33;;;;;;;13.09;100.00;96245.34;5116346;28;20222;-59
2022/04/16 09:36:05;;;;;;;7.07;6.37;;;;;;;12.82;100.00;96246.97;5098453;28;20190;-58
2022/04/16 09:38:42;;;;;;;7.50;6.07;;;;;;;12.44;100.00;96247.84;5098252;28;20187;-58
2022/04/16 09:41:08;;;;;;;6.63;5.90;;;;;;;12.22;100.00;96249.03;5098345;28;20228;-59
2022/04/16 09:43:37;;;;;;;7.70;6.30;;;;;;;12.26;100.00;96247.06;5116005;28;20229;-59
2022/04/16 09:46:11;;;;;;;6.80;6.10;;;;;;;12.45;100.00;96243.91;5098666;28;20305;-59
2022/04/16 09:48:37;;;;;;;6.97;6.27;;;;;;;12.30;100.00;96247.84;5098354;28;20191;-59
2022/04/16 09:51:04;;;;;;;6.97;5.97;;;;;;;12.23;100.00;96248.66;5097909;28;20209;-59
2022/04/16 09:53:31;;;;;;;7.23;6.00;;;;;;;12.37;100.00;96234.16;5098044;28;20214;-60
2022/04/16 09:55:58;;;;;;;6.27;5.53;;;;;;;12.30;100.00;96245.09;5098195;28;20186;-59
2022/04/16 09:58:36;;;;;;;6.77;5.33;;;;;;;12.69;100.00;96243.09;5097917;28;20196;-59
2022/04/16 10:01:02;;;;;;;7.60;5.83;;;;;;;12.41;100.00;96248.63;5098354;28;20232;-58
2022/04/16 10:03:29;;;;;;;8.23;6.10;;;;;;;12.82;100.00;96252.47;5097918;28;20252;-58
2022/04/16 10:05:57;;;;;;;7.00;5.80;;;;;;;13.07;100.00;96248.47;5097458;28;20284;-59
2022/04/16 10:08:23;;;;;;;7.33;6.00;;;;;;;12.97;100.00;96253.97;5097885;28;20188;-58
2022/04/16 10:10:54;;;;;;;6.73;5.87;;;;;;;12.86;100.00;96259.47;5097852;28;20236;-53
2022/04/16 10:13:21;;;;;;;6.33;5.73;;;;;;;13.41;100.00;96248.72;5098369;28;20194;-61
2022/04/16 10:15:59;;;;;;;6.20;5.47;;;;;;;13.85;100.00;96257.06;5097738;28;20253;-58
2022/04/16 10:18:26;;;;;;;6.27;5.37;;;;;;;13.65;100.00;96267.00;5097383;28;20184;-58
2022/04/16 10:20:58;;;;;;;7.30;5.90;;;;;;;13.93;100.00;96257.78;5097601;28;20207;-60
2022/04/16 10:23:27;;;;;;;6.17;5.27;;;;;;;13.42;100.00;96269.47;5097821;28;20605;-58
2022/04/16 10:26:00;;;;;;;5.70;5.17;;;;;;;13.57;100.00;96270.97;5096459;28;20208;-60
2022/04/16 10:28:33;;;;;;;6.70;5.10;;;;;;;13.11;100.00;96275.88;5097683;28;20185;-58
2022/04/16 10:30:58;;;;;;;6.27;5.23;;;;;;;13.34;100.00;96274.22;5097232;28;20180;-53
2022/04/16 10:33:27;;;;;;;6.73;5.07;;;;;;;13.16;100.00;96272.75;5097594;28;20274;-53
2022/04/16 10:36:00;;;;;;;5.47;4.87;;;;;;;13.29;100.00;96271.09;5097519;28;20187;-53
2022/04/16 10:38:40;;;;;;;6.43;5.20;;;;;;;13.37;100.00;96271.88;5098057;28;20263;-55
2022/04/16 10:41:19;;;;;;;6.67;5.33;;;;;;;13.70;99.56;96269.34;5097956;28;20183;-53
2022/04/16 10:43:54;;;;;;;5.37;4.87;;;;;;;12.94;100.00;96282.94;5097350;28;20220;-58
2022/04/16 10:46:19;;;;;;;6.67;5.50;;;;;;;12.34;100.00;96286.97;5097172;28;20306;-55
2022/04/16 10:48:45;;;;;;;7.33;6.33;;;;;;;12.49;100.00;96283.84;5097316;28;20207;-55
2022/04/16 10:51:10;;;;;;;7.37;6.17;;;;;;;12.17;100.00;96298.72;5096965;28;20187;-52
2022/04/16 10:53:38;;;;;;;8.30;6.37;;;;;;;12.33;100.00;96290.88;5096794;28;20196;-53
2022/04/16 10:56:09;;;;;;;7.33;6.13;;;;;;;12.10;100.00;96282.28;5097253;28;20180;-53
2022/04/16 10:58:35;;;;;;;8.33;6.67;;;;;;;12.78;100.00;96284.56;5097399;28;20529;-54
2022/04/16 11:01:11;;;;;;;6.30;5.70;;;;;;;13.39;100.00;96286.75;5097221;28;20190;-53
2022/04/16 11:03:48;;;;;;;6.67;5.33;;;;;;;12.97;100.00;96298.63;5096746;28;20191;-53
2022/04/16 11:06:15;;;;;;;6.37;5.67;;;;;;;13.07;100.00;96297.03;5096902;28;20203;-61
2022/04/16 11:08:41;;;;;;;6.43;5.60;;;;;;;12.70;100.00;96283.81;5096658;28;20266;-53
2022/04/16 11:11:08;;;;;;;6.80;6.10;;;;;;;12.62;100.00;96306.13;5096949;28;20192;-64
2022/04/16 11:13:36;;;;;;;6.10;5.50;;;;;;;13.55;100.00;96300.75;5096709;28;20182;-65
2022/04/16 11:16:01;;;;;;;6.40;5.80;;;;;;;13.13;100.00;96298.22;5096804;28;20198;-64
2022/04/16 11:18:44;;;;;;;6.23;5.63;;;;;;;13.48;100.00;96298.09;5096473;28;20192;-65
2022/04/16 11:21:12;;;;;;;6.20;5.60;;;;;;;13.70;100.00;96302.28;5097181;28;20196;-64
2022/04/16 11:23:46;;;;;;;7.47;5.77;;;;;;;13.63;100.00;96290.53;5096412;28;20194;-65
2022/04/16 11:34:55;;;;;;;5.80;5.27;;;;;;;14.54;89.88;96293.47;5114707;28;20694;-52
2022/04/16 11:37:20;;;;;;;6.10;4.73;;;;;;;14.19;90.20;96279.97;5096548;28;20202;-51
2022/04/16 11:39:48;;;;;;;6.63;5.20;;;;;;;14.39;92.81;96285.72;5096202;28;20198;-53
2022/04/16 11:42:14;;;;;;;6.00;5.43;;;;;;;14.58;90.15;96294.19;5096641;28;20212;-54
2022/04/16 11:44:41;;;;;;;5.80;5.30;;;;;;;13.73;92.06;96290.47;5096477;28;20186;-64
2022/04/16 11:47:22;;;;;;;5.53;5.03;;;;;;;13.73;93.57;96295.97;5095968;28;20213;-60
2022/04/16 11:49:56;;;;;;;5.30;4.80;;;;;;;14.23;91.28;96293.69;5096894;28;20179;-60